createdAt,value
2018-07-05T00:02:03.895Z,19.00
2018-07-05T00:07:18.373Z,19.00
2018-07-05T00:12:32.885Z,18.80
2018-07-05T00:17:47.449Z,18.60
2018-07-05T00:23:02.025Z,18.40
2018-07-05T00:28:16.709Z,18.30
2018-07-05T00:33:31.393Z,18.30
2018-07-05T00:38:45.881Z,18.30
2018-07-05T00:44:00.465Z,18.30
2018-07-05T00:49:14.897Z,18.20
2018-07-05T00:54:29.235Z,18.20
2018-07-05T00:59:43.862Z,18.10
2018-07-05T01:04:58.369Z,18.10
2018-07-05T01:10:12.848Z,18.00
2018-07-05T01:15:27.145Z,17.80
2018-07-05T01:20:41.769Z,17.70
2018-07-05T01:25:56.377Z,17.70
2018-07-05T01:31:11.072Z,17.50
2018-07-05T01:36:25.676Z,17.40
2018-07-05T01:41:40.162Z,17.30
2018-07-05T01:46:54.753Z,17.30
2018-07-05T01:52:12.952Z,17.30
2018-07-05T01:57:27.457Z,17.10
2018-07-05T02:02:42.017Z,17.00
2018-07-05T02:07:56.514Z,17.00
2018-07-05T02:13:11.177Z,17.00
2018-07-05T02:18:25.666Z,17.00
2018-07-05T02:23:40.345Z,16.90
2018-07-05T02:28:54.684Z,17.00
2018-07-05T02:39:29.341Z,16.90
2018-07-05T02:44:43.975Z,16.80
2018-07-05T02:49:58.529Z,16.90
2018-07-05T02:55:13.121Z,16.90
2018-07-05T03:00:27.685Z,16.90
2018-07-05T03:05:42.192Z,16.70
2018-07-05T03:10:56.928Z,16.60
2018-07-05T03:16:11.469Z,16.70
2018-07-05T03:21:26.034Z,16.70
2018-07-05T03:26:40.597Z,16.50
2018-07-05T03:31:55.169Z,16.50
2018-07-05T03:37:09.881Z,16.50
2018-07-05T03:42:24.177Z,16.50
2018-07-05T03:47:38.612Z,16.60
2018-07-05T03:52:53.065Z,16.60
2018-07-05T03:58:07.612Z,16.50
2018-07-05T04:03:22.176Z,16.50
2018-07-05T04:08:36.756Z,16.50
2018-07-05T04:13:51.237Z,16.60
2018-07-05T04:19:05.874Z,16.70
2018-07-05T04:24:20.373Z,16.80
2018-07-05T04:29:35.063Z,16.80
2018-07-05T04:34:49.501Z,16.70
2018-07-05T04:40:03.915Z,16.80
2018-07-05T04:45:18.541Z,16.70
2018-07-05T04:50:33.149Z,16.80
2018-07-05T04:55:47.697Z,17.00
2018-07-05T05:01:02.208Z,17.30
2018-07-05T05:06:16.544Z,17.70
2018-07-05T05:11:31.094Z,17.90
2018-07-05T05:16:45.505Z,18.10
2018-07-05T05:21:59.773Z,18.40
2018-07-05T05:27:14.329Z,18.70
2018-07-05T05:32:28.701Z,19.00
2018-07-05T05:37:43.381Z,19.20
2018-07-05T05:42:57.853Z,19.40
2018-07-05T05:48:12.292Z,19.70
2018-07-05T05:53:26.618Z,20.00
2018-07-05T05:58:41.080Z,20.40
2018-07-05T06:03:55.545Z,20.60
2018-07-05T06:09:10.115Z,20.90
2018-07-05T06:14:24.721Z,21.10
2018-07-05T06:19:39.179Z,21.30
2018-07-05T06:24:53.815Z,21.50
2018-07-05T06:30:08.449Z,21.70
2018-07-05T06:35:22.986Z,22.00
2018-07-05T06:40:37.640Z,22.20
2018-07-05T06:45:52.051Z,22.40
2018-07-05T06:51:07.093Z,22.60
2018-07-05T06:56:21.425Z,22.90
2018-07-05T07:01:35.922Z,23.10
2018-07-05T07:06:50.440Z,23.30
2018-07-05T07:12:04.989Z,23.50
2018-07-05T07:17:19.545Z,23.60
2018-07-05T07:22:34.082Z,23.80
2018-07-05T07:27:48.573Z,23.90
2018-07-05T07:33:03.755Z,24.00
2018-07-05T07:38:18.290Z,24.20
2018-07-05T07:43:20.449Z,24.40
2018-07-05T07:48:22.625Z,24.60
2018-07-05T07:53:24.769Z,24.80
2018-07-05T07:58:26.929Z,25.00
2018-07-05T08:03:29.073Z,25.30
2018-07-05T08:08:31.232Z,25.40
2018-07-05T08:13:33.381Z,25.60
2018-07-05T08:18:35.533Z,25.60
2018-07-05T08:23:37.681Z,25.70
2018-07-05T08:28:39.829Z,25.80
2018-07-05T08:33:41.981Z,25.70
2018-07-05T08:38:44.121Z,25.90
2018-07-05T08:43:46.265Z,26.00
2018-07-05T08:48:48.408Z,26.20
2018-07-05T08:53:50.553Z,26.40
2018-07-05T08:58:52.788Z,26.50
2018-07-05T09:03:54.935Z,26.50
2018-07-05T09:08:57.088Z,26.50
2018-07-05T09:13:59.321Z,26.60
2018-07-05T09:19:01.552Z,26.70
2018-07-05T09:24:03.690Z,26.80
2018-07-05T09:29:05.937Z,26.90
2018-07-05T09:34:08.081Z,27.10
2018-07-05T09:39:10.233Z,27.20
2018-07-05T09:44:12.375Z,27.30
2018-07-05T09:49:14.516Z,27.40
2018-07-05T09:54:16.664Z,27.40
2018-07-05T09:59:18.823Z,27.50
2018-07-05T10:04:21.001Z,27.50
2018-07-05T10:09:23.154Z,27.70
2018-07-05T10:14:25.305Z,27.90
2018-07-05T10:19:27.469Z,28.00
2018-07-05T10:24:29.604Z,28.00
2018-07-05T10:29:44.352Z,28.10
2018-07-05T10:34:46.496Z,28.10
2018-07-05T10:40:01.013Z,28.10
2018-07-05T10:45:16.348Z,28.20
2018-07-05T10:50:30.806Z,28.20
2018-07-05T10:55:45.263Z,28.20
2018-07-05T11:00:59.717Z,28.30
2018-07-05T11:06:14.313Z,28.30
2018-07-05T11:11:28.837Z,28.30
2018-07-05T11:16:43.509Z,28.30
2018-07-05T11:21:58.121Z,28.40
2018-07-05T11:27:12.620Z,28.40
2018-07-05T11:32:27.881Z,28.50
2018-07-05T11:37:42.248Z,28.40
2018-07-05T11:42:56.721Z,28.40
2018-07-05T11:48:11.282Z,28.30
2018-07-05T11:53:25.813Z,28.40
2018-07-05T11:58:40.218Z,28.50
2018-07-05T12:03:54.686Z,28.60
2018-07-05T12:09:09.681Z,28.70
2018-07-05T12:14:24.320Z,28.80
2018-07-05T12:19:38.786Z,28.90
2018-07-05T12:24:53.333Z,29.00
2018-07-05T12:30:07.846Z,29.00
2018-07-05T12:35:22.261Z,29.00
2018-07-05T12:40:36.685Z,29.00
2018-07-05T12:45:51.070Z,28.90
2018-07-05T12:51:05.652Z,29.00
2018-07-05T12:56:20.246Z,29.00
2018-07-05T13:01:34.846Z,29.00
2018-07-05T13:06:49.254Z,28.90
2018-07-05T13:12:03.766Z,28.80
2018-07-05T13:17:18.059Z,28.80
2018-07-05T13:22:32.782Z,28.70
2018-07-05T13:27:47.149Z,28.70
2018-07-05T13:33:02.964Z,28.70
2018-07-05T13:38:17.912Z,28.60
2018-07-05T13:43:32.370Z,28.70
2018-07-05T13:48:46.818Z,28.80
2018-07-05T13:54:01.273Z,28.80
2018-07-05T13:59:15.809Z,28.70
2018-07-05T14:04:30.434Z,28.60
2018-07-05T14:09:45.057Z,28.60
2018-07-05T14:14:59.801Z,28.60
2018-07-05T14:20:15.088Z,28.60
2018-07-05T14:25:29.435Z,28.60
2018-07-05T14:30:44.004Z,28.50
2018-07-05T14:35:58.506Z,28.50
2018-07-05T14:41:13.056Z,28.40
2018-07-05T14:46:27.537Z,28.30
2018-07-05T14:51:41.886Z,28.30
2018-07-05T14:56:56.477Z,28.30
2018-07-05T15:02:11.053Z,28.30
2018-07-05T15:07:25.604Z,28.30
2018-07-05T15:12:40.370Z,28.30
2018-07-05T15:17:54.618Z,28.20
2018-07-05T15:23:09.137Z,28.30
2018-07-05T15:28:23.617Z,28.40
2018-07-05T15:33:38.105Z,28.60
2018-07-05T15:38:52.759Z,28.60
2018-07-05T15:44:07.337Z,28.60
2018-07-05T15:49:21.884Z,28.60
2018-07-05T15:54:36.408Z,28.60
2018-07-05T15:59:50.794Z,28.60
2018-07-05T16:05:05.309Z,28.60
2018-07-05T16:10:19.860Z,28.60
2018-07-05T16:15:34.236Z,28.40
2018-07-05T16:20:49.088Z,28.30
2018-07-05T16:26:04.670Z,28.30
2018-07-05T16:31:19.232Z,28.30
2018-07-05T16:36:33.662Z,28.30
2018-07-05T16:41:48.249Z,28.20
2018-07-05T16:47:02.696Z,28.20
2018-07-05T16:52:17.393Z,28.20
2018-07-05T16:57:31.845Z,28.20
2018-07-05T17:02:46.339Z,28.10
2018-07-05T17:08:00.856Z,28.00
2018-07-05T17:13:15.441Z,28.00
2018-07-05T17:18:29.921Z,27.90
2018-07-05T17:23:45.268Z,27.80
2018-07-05T17:28:59.653Z,27.80
2018-07-05T17:34:14.102Z,27.60
2018-07-05T17:39:28.709Z,27.50
2018-07-05T17:44:43.196Z,27.50
2018-07-05T17:49:57.730Z,27.50
2018-07-05T17:55:12.304Z,27.40
2018-07-05T18:05:35.344Z,27.20
2018-07-05T18:10:49.802Z,27.20
2018-07-05T18:16:04.521Z,27.10
2018-07-05T18:21:19.051Z,26.90
2018-07-05T18:26:33.615Z,26.80
2018-07-05T18:31:47.898Z,26.70
2018-07-05T18:37:02.493Z,26.50
2018-07-05T18:42:16.949Z,26.30
2018-07-05T18:47:31.396Z,26.10
2018-07-05T18:52:46.041Z,25.90
2018-07-05T18:58:03.442Z,25.80
2018-07-05T19:03:18.756Z,25.70
2018-07-05T19:08:33.520Z,25.50
2018-07-05T19:13:49.817Z,25.30
2018-07-05T19:19:05.638Z,25.10
2018-07-05T19:24:20.202Z,25.00
2018-07-05T19:29:34.801Z,24.80
2018-07-05T19:34:49.300Z,24.60
2018-07-05T19:40:03.865Z,24.30
2018-07-05T19:45:18.330Z,24.10
2018-07-05T19:50:32.860Z,23.80
2018-07-05T19:55:47.191Z,23.50
2018-07-05T20:01:01.646Z,23.20
2018-07-05T20:06:16.244Z,23.00
2018-07-05T20:11:30.829Z,22.70
2018-07-05T20:16:45.268Z,22.50
2018-07-05T20:22:00.628Z,22.30
2018-07-05T20:27:15.097Z,22.20
2018-07-05T20:32:29.557Z,22.10
2018-07-05T20:37:43.972Z,21.90
2018-07-05T20:42:58.448Z,21.80
2018-07-05T20:48:13.113Z,21.60
2018-07-05T20:53:27.529Z,21.50
2018-07-05T20:58:41.821Z,21.40
2018-07-05T21:03:56.437Z,21.20
2018-07-05T21:09:10.851Z,21.10
2018-07-05T21:14:25.317Z,20.90
2018-07-05T21:19:39.888Z,20.80
2018-07-05T21:24:54.465Z,20.70
2018-07-05T21:30:08.885Z,20.60
2018-07-05T21:35:23.301Z,20.50
2018-07-05T21:40:37.824Z,20.50
2018-07-05T21:45:52.488Z,20.30
2018-07-05T21:51:06.916Z,20.20
2018-07-05T21:56:21.361Z,20.20
2018-07-05T22:01:35.802Z,20.00
2018-07-05T22:06:50.350Z,19.90
2018-07-05T22:12:04.825Z,19.80
2018-07-05T22:17:24.761Z,19.70
2018-07-05T22:22:44.751Z,19.60
2018-07-05T22:28:04.573Z,19.50
2018-07-05T22:33:19.064Z,19.50
2018-07-05T22:38:33.540Z,19.40
2018-07-05T22:43:48.026Z,19.30
2018-07-05T22:49:02.572Z,19.30
2018-07-05T22:54:17.071Z,19.30
2018-07-05T22:59:31.508Z,19.20
2018-07-05T23:04:46.159Z,19.10
2018-07-05T23:10:00.689Z,19.10
2018-07-05T23:15:15.004Z,19.10
2018-07-05T23:20:29.584Z,19.00
2018-07-05T23:25:44.105Z,18.90
2018-07-05T23:30:58.500Z,18.80
2018-07-05T23:36:12.861Z,18.60
2018-07-05T23:41:27.450Z,18.50
2018-07-05T23:46:41.921Z,18.40
2018-07-05T23:51:56.459Z,18.30
2018-07-05T23:57:10.945Z,18.20
